Time;durP1;ratioP1;P1;durP2;ratioP2;P2;SDS_P1;SDS_P2;PMS_P1;PMS_P2;Temp;Humidity;BMP_temperature;BMP_pressure;BME280_temperature;BME280_humidity;BME280_pressure;Samples;Min_cycle;Max_cycle;Signal;HPM_P1;HPM_P2
2023/11/19 01:23:03;;;;;;;99.73;93.73;;;5.70;95.10;;;;;;3848428;22;20463;-92
2023/11/19 01:25:29;;;;;;;104.30;98.10;;;5.80;95.20;;;;;;5023112;28;20176;-96
2023/11/19 01:27:58;;;;;;;102.17;96.10;;;5.70;95.10;;;;;;5024397;28;20205;-95
2023/11/19 01:30:24;;;;;;;105.07;98.87;;;5.70;95.10;;;;;;5008812;28;20150;-96
2023/11/19 01:33:36;;;;;;;93.43;87.83;;;5.80;95.10;;;;;;5024521;28;20142;-96
2023/11/19 01:36:09;;;;;;;102.00;95.97;;;5.70;95.10;;;;;;5020727;28;20146;-96
2023/11/19 01:42:27;;;;;;;108.80;102.13;;;5.70;95.20;;;;;;5041483;28;20136;-96
2023/11/19 01:45:33;;;;;;;67.87;63.83;;;5.80;95.30;;;;;;5024506;28;20138;-96
2023/11/19 01:48:03;;;;;;;70.23;66.00;;;5.80;95.20;;;;;;5001666;28;20197;-96
2023/11/19 01:51:27;;;;;;;110.47;103.77;;;5.80;95.30;;;;;;5019288;28;20149;-96
2023/11/19 01:54:27;;;;;;;107.63;101.23;;;5.80;95.30;;;;;;4984721;28;20239;-96
2023/11/19 01:57:17;;;;;;;72.30;67.90;;;5.80;95.30;;;;;;4984168;28;20151;-96
2023/11/19 02:00:15;;;;;;;74.00;69.60;;;5.90;95.40;;;;;;5024304;28;20185;-96
2023/11/19 02:03:03;;;;;;;110.23;103.73;;;5.80;95.30;;;;;;5023770;28;20156;-96
2023/11/19 02:05:47;;;;;;;113.87;107.17;;;5.80;95.40;;;;;;5031550;28;20150;-96
2023/11/19 02:08:20;;;;;;;69.70;65.53;;;5.80;95.40;;;;;;5023952;28;20181;-96
2023/11/19 02:11:13;;;;;;;76.10;71.63;;;5.80;95.40;;;;;;5038906;28;20158;-96
2023/11/19 02:13:45;;;;;;;71.90;67.60;;;5.90;95.50;;;;;;5005038;28;20158;-96
2023/11/19 02:16:16;;;;;;;68.30;64.27;;;5.90;95.40;;;;;;5040698;28;20142;-96
2023/11/19 02:19:22;;;;;;;69.87;65.67;;;5.90;95.40;;;;;;5037735;28;20148;-96
2023/11/19 02:21:50;;;;;;;71.93;67.70;;;6.00;95.50;;;;;;5039772;28;20172;-96
2023/11/19 02:24:52;;;;;;;69.83;65.63;;;5.90;95.50;;;;;;4986831;28;20192;-96
2023/11/19 02:38:04;;;;;;;74.17;69.63;;;6.00;95.50;;;;;;5180642;22;20197;-95
2023/11/19 02:40:52;;;;;;;76.53;71.93;;;6.10;95.60;;;;;;5024862;28;20166;-96
2023/11/19 02:43:19;;;;;;;74.60;70.17;;;6.00;95.60;;;;;;5023348;28;20231;-96
2023/11/19 02:45:55;;;;;;;76.40;71.90;;;6.10;95.60;;;;;;5023443;28;20134;-96
2023/11/19 02:48:50;;;;;;;84.83;79.70;;;6.10;95.60;;;;;;4988937;28;20193;-96
2023/11/19 02:51:31;;;;;;;115.83;108.87;;;6.20;95.60;;;;;;4997972;28;20172;-96
2023/11/19 02:54:46;;;;;;;117.67;110.37;;;6.20;95.70;;;;;;5007625;28;20210;-96
2023/11/19 02:57:22;;;;;;;118.10;111.10;;;6.30;95.70;;;;;;5019643;28;20210;-96
2023/11/19 02:59:51;;;;;;;122.80;115.43;;;6.20;95.70;;;;;;5022735;28;20146;-96
2023/11/19 03:02:47;;;;;;;121.73;114.53;;;6.30;95.80;;;;;;5007963;28;20143;-96
2023/11/19 03:05:26;;;;;;;121.33;114.10;;;6.30;95.80;;;;;;5024605;28;20127;-96
2023/11/19 03:08:07;;;;;;;123.77;116.17;;;6.40;95.80;;;;;;5007685;28;20248;-96
2023/11/19 03:11:12;;;;;;;123.13;115.70;;;6.40;95.90;;;;;;4961192;28;20157;-96
2023/11/19 03:13:40;;;;;;;121.67;114.27;;;6.40;95.90;;;;;;5024072;28;20134;-96
2023/11/19 03:16:10;;;;;;;122.97;115.57;;;6.60;95.90;;;;;;5007505;28;20142;-96
2023/11/19 03:18:38;;;;;;;125.43;117.80;;;6.60;95.90;;;;;;5022026;28;20147;-96
2023/11/19 03:21:10;;;;;;;127.37;119.53;;;6.70;96.00;;;;;;4991616;28;20222;-96
2023/11/19 03:23:40;;;;;;;89.80;84.17;;;6.70;96.00;;;;;;5006183;28;20146;-96
2023/11/19 03:26:38;;;;;;;89.30;83.50;;;6.70;96.00;;;;;;5010216;28;20147;-96
2023/11/19 03:29:04;;;;;;;125.87;117.80;;;6.80;96.00;;;;;;5007101;28;20150;-96
2023/11/19 03:31:36;;;;;;;133.13;124.73;;;6.80;96.10;;;;;;5023626;28;20139;-96
2023/11/19 03:34:06;;;;;;;137.87;129.20;;;6.80;96.10;;;;;;5023535;28;20139;-96
2023/11/19 03:36:36;;;;;;;94.30;88.20;;;6.80;96.10;;;;;;5023516;28;20131;-96
2023/11/19 03:39:09;;;;;;;91.80;85.83;;;6.80;96.10;;;;;;5023948;28;20220;-96
2023/11/19 03:41:39;;;;;;;133.30;124.90;;;6.80;96.20;;;;;;5022389;28;20162;-96
2023/11/19 03:44:05;;;;;;;134.00;125.10;;;6.90;96.20;;;;;;5023199;28;20154;-96
2023/11/19 03:46:35;;;;;;;125.63;117.67;;;6.90;96.20;;;;;;5023221;28;20142;-96
2023/11/19 03:49:04;;;;;;;83.37;77.80;;;6.90;96.20;;;;;;4991287;28;20139;-95
2023/11/19 03:51:34;;;;;;;87.23;81.33;;;7.00;96.30;;;;;;5023267;28;20135;-96
2023/11/19 03:54:00;;;;;;;90.70;84.60;;;7.00;96.30;;;;;;5006994;28;20138;-96
2023/11/19 03:56:38;;;;;;;85.50;79.47;;;7.00;96.30;;;;;;5023610;28;20145;-96
2023/11/19 03:59:39;;;;;;;85.20;79.47;;;7.10;96.40;;;;;;5021889;28;20145;-96
2023/11/19 04:02:16;;;;;;;87.90;81.73;;;7.10;96.40;;;;;;5006466;28;20146;-96
2023/11/19 04:05:18;;;;;;;81.37;75.83;;;7.20;96.40;;;;;;5023509;28;20123;-96
2023/11/19 04:07:45;;;;;;;85.20;79.00;;;7.20;96.40;;;;;;5005852;28;20258;-96
2023/11/19 04:10:11;;;;;;;83.40;77.57;;;7.30;96.50;;;;;;4989176;28;20170;-96
2023/11/19 04:12:38;;;;;;;82.90;77.20;;;7.30;96.50;;;;;;5022718;28;20146;-96
2023/11/19 04:15:06;;;;;;;81.57;75.67;;;7.30;96.50;;;;;;5006301;28;20149;-96
2023/11/19 04:17:33;;;;;;;83.97;78.03;;;7.40;96.60;;;;;;5022753;28;20209;-96
2023/11/19 04:20:12;;;;;;;77.60;71.53;;;7.50;96.60;;;;;;5023238;28;20134;-96
2023/11/19 04:22:38;;;;;;;82.80;76.40;;;7.60;96.70;;;;;;5022582;28;20150;-96
2023/11/19 04:25:04;;;;;;;76.20;70.53;;;7.60;96.60;;;;;;5022663;28;20151;-96
2023/11/19 04:27:33;;;;;;;82.47;76.03;;;7.70;96.70;;;;;;5005736;28;20190;-96
2023/11/19 04:30:10;;;;;;;121.00;112.47;;;7.80;96.70;;;;;;5006286;28;20138;-96
2023/11/19 04:32:37;;;;;;;121.40;112.60;;;8.00;96.80;;;;;;5006330;28;20157;-96
2023/11/19 04:35:11;;;;;;;115.50;106.87;;;8.10;96.80;;;;;;5022418;28;20150;-96
2023/11/19 04:37:43;;;;;;;115.73;107.07;;;8.30;96.90;;;;;;5020581;28;20150;-96
2023/11/19 04:40:36;;;;;;;114.60;105.70;;;8.50;97.00;;;;;;5007686;28;20158;-96
2023/11/19 04:43:02;;;;;;;117.23;108.23;;;8.70;97.10;;;;;;5022166;28;20150;-96
2023/11/19 04:45:28;;;;;;;114.70;105.43;;;8.80;97.10;;;;;;4989997;28;20146;-96
2023/11/19 04:48:13;;;;;;;112.57;103.50;;;8.90;97.10;;;;;;5022058;28;20189;-96
2023/11/19 04:50:39;;;;;;;117.93;108.27;;;9.10;97.10;;;;;;5022247;28;20206;-96
2023/11/19 04:53:10;;;;;;;117.30;107.83;;;9.20;97.10;;;;;;5005897;28;20214;-96
2023/11/19 04:55:36;;;;;;;120.43;110.93;;;9.30;97.10;;;;;;5022126;28;20143;-96
2023/11/19 04:58:03;;;;;;;119.20;108.77;;;9.30;97.10;;;;;;5022048;28;20185;-96
2023/11/19 05:00:31;;;;;;;116.80;107.30;;;9.40;97.10;;;;;;5005878;28;20151;-96
2023/11/19 05:02:57;;;;;;;112.77;102.90;;;9.50;97.10;;;;;;5022000;28;20267;-96
2023/11/19 05:05:23;;;;;;;113.83;104.00;;;9.60;97.10;;;;;;5021853;28;20158;-96
2023/11/19 05:07:49;;;;;;;88.77;80.20;;;9.80;97.20;;;;;;5021745;28;20245;-96
2023/11/19 05:10:16;;;;;;;77.67;69.43;;;9.90;97.10;;;;;;5022299;28;20145;-96
2023/11/19 05:12:42;;;;;;;71.47;64.37;;;9.80;97.10;;;;;;5021868;28;20138;-96
2023/11/19 05:15:08;;;;;;;112.93;102.57;;;10.10;97.10;;;;;;5021746;28;20139;-96
2023/11/19 05:17:37;;;;;;;112.77;103.13;;;10.00;97.10;;;;;;5005064;28;20161;-96
2023/11/19 05:20:03;;;;;;;78.60;70.57;;;10.10;97.10;;;;;;5021729;28;20149;-96
2023/11/19 05:22:29;;;;;;;83.03;70.50;;;10.00;97.00;;;;;;5020794;28;20157;-96
2023/11/19 05:24:55;;;;;;;82.70;74.60;;;10.10;97.00;;;;;;5021540;28;20142;-96
2023/11/19 05:27:23;;;;;;;115.27;104.60;;;10.10;97.00;;;;;;5021439;28;20182;-96
2023/11/19 05:29:52;;;;;;;127.43;116.87;;;10.20;97.00;;;;;;5021541;28;20142;-95
2023/11/19 05:32:18;;;;;;;81.17;72.93;;;10.20;97.00;;;;;;4989569;28;20210;-96
2023/11/19 05:34:44;;;;;;;85.20;76.33;;;10.30;97.00;;;;;;5020922;28;20150;-96
2023/11/19 05:37:10;;;;;;;85.80;77.53;;;10.30;96.90;;;;;;5021236;28;20217;-96
2023/11/19 05:39:36;;;;;;;87.83;78.97;;;10.20;96.90;;;;;;5021302;28;20166;-96
2023/11/19 05:42:02;;;;;;;89.77;80.50;;;10.20;96.90;;;;;;5021290;28;20153;-95
2023/11/19 05:44:28;;;;;;;90.93;81.47;;;10.30;96.90;;;;;;5020566;28;20173;-96
2023/11/19 05:46:56;;;;;;;91.17;81.37;;;10.30;96.80;;;;;;5021409;28;20193;-96
2023/11/19 05:49:22;;;;;;;92.10;83.33;;;10.30;96.80;;;;;;5021545;28;20153;-96
2023/11/19 05:51:48;;;;;;;90.80;82.03;;;10.40;96.80;;;;;;5021036;28;20138;-96
2023/11/19 05:54:14;;;;;;;88.13;79.90;;;10.40;96.80;;;;;;5004776;28;20218;-96
2023/11/19 05:56:40;;;;;;;93.73;84.40;;;10.50;96.80;;;;;;5020932;28;20150;-96
2023/11/19 05:59:14;;;;;;;98.20;88.13;;;10.50;96.70;;;;;;5020980;28;20138;-96
2023/11/19 06:01:43;;;;;;;91.83;82.27;;;10.50;96.70;;;;;;5020959;28;20152;-96
2023/11/19 06:04:09;;;;;;;92.07;82.10;;;10.50;96.70;;;;;;5020862;28;20134;-96
2023/11/19 06:06:35;;;;;;;98.47;88.17;;;10.60;96.70;;;;;;5020695;28;20218;-96
2023/11/19 06:09:04;;;;;;;88.23;78.83;;;10.50;96.60;;;;;;5020767;28;20134;-96
2023/11/19 06:11:31;;;;;;;85.87;77.50;;;10.60;96.50;;;;;;5020703;28;20174;-96
2023/11/19 06:13:57;;;;;;;91.00;81.33;;;10.50;96.50;;;;;;5020524;28;20158;-96
2023/11/19 06:16:25;;;;;;;94.67;84.37;;;10.60;96.50;;;;;;5020567;28;20266;-96
2023/11/19 06:18:54;;;;;;;96.63;86.43;;;10.60;96.50;;;;;;5020620;28;20172;-96
2023/11/19 06:21:20;;;;;;;93.20;81.10;;;10.60;96.50;;;;;;5020635;28;20150;-96
2023/11/19 06:23:46;;;;;;;126.67;114.83;;;10.80;96.40;;;;;;5020547;28;20142;-96
2023/11/19 06:26:11;;;;;;;129.33;116.07;;;10.80;96.30;;;;;;5020459;28;20185;-96
2023/11/19 06:28:37;;;;;;;123.50;112.13;;;10.90;96.20;;;;;;5020430;28;20173;-96
2023/11/19 06:31:07;;;;;;;122.57;110.93;;;10.90;96.10;;;;;;5020484;28;20146;-96
2023/11/19 06:33:32;;;;;;;115.77;104.97;;;10.90;95.90;;;;;;5020285;28;20138;-96
2023/11/19 06:35:59;;;;;;;113.87;103.30;;;10.80;95.80;;;;;;5020300;28;20207;-96
2023/11/19 06:38:25;;;;;;;115.43;104.87;;;11.00;95.80;;;;;;5019136;28;20154;-96
2023/11/19 06:40:52;;;;;;;112.77;102.67;;;11.00;95.60;;;;;;5020351;28;20142;-96
2023/11/19 06:43:19;;;;;;;110.00;100.53;;;11.00;95.60;;;;;;5020069;28;20150;-96
2023/11/19 06:45:48;;;;;;;106.60;95.70;;;11.00;95.50;;;;;;5020299;28;20138;-96
2023/11/19 06:48:21;;;;;;;98.27;88.23;;;11.00;95.40;;;;;;4987793;28;20189;-96
2023/11/19 06:50:47;;;;;;;91.60;83.93;;;11.10;95.30;;;;;;5020185;28;20131;-96
2023/11/19 06:53:18;;;;;;;91.00;82.03;;;11.20;95.10;;;;;;5020099;28;20142;-95
2023/11/19 06:55:48;;;;;;;91.40;82.50;;;11.10;94.90;;;;;;5003924;28;20131;-96
2023/11/19 06:58:14;;;;;;;58.20;51.70;;;11.10;94.80;;;;;;4987502;28;20162;-96
2023/11/19 07:00:44;;;;;;;73.50;51.03;;;11.10;94.70;;;;;;5003780;28;20153;-95
2023/11/19 07:03:12;;;;;;;86.47;78.60;;;11.10;94.60;;;;;;4988144;28;20138;-96
2023/11/19 07:05:45;;;;;;;89.70;81.10;;;11.10;94.60;;;;;;5003822;28;20142;-96
2023/11/19 07:08:13;;;;;;;93.20;75.43;;;11.00;94.50;;;;;;5019334;28;20198;-96
2023/11/19 07:10:46;;;;;;;64.43;48.27;;;11.00;94.50;;;;;;5019942;28;20202;-96
2023/11/19 07:13:13;;;;;;;58.73;49.97;;;11.20;94.40;;;;;;5019665;28;20150;-96
2023/11/19 07:15:41;;;;;;;76.90;69.93;;;11.10;94.40;;;;;;5019905;28;20140;-96
2023/11/19 07:18:07;;;;;;;77.00;69.87;;;11.20;94.20;;;;;;5019876;28;20146;-96
2023/11/19 07:20:33;;;;;;;60.93;47.07;;;11.20;94.10;;;;;;5019893;28;20173;-96
2023/11/19 07:22:58;;;;;;;63.17;45.30;;;11.20;94.00;;;;;;5019893;28;20166;-95
2023/11/19 07:25:27;;;;;;;55.00;43.90;;;11.20;94.00;;;;;;5019805;28;20139;-96
2023/11/19 07:27:53;;;;;;;59.57;45.13;;;11.30;93.80;;;;;;5019673;28;20206;-96
2023/11/19 07:30:19;;;;;;;61.47;42.13;;;11.30;93.80;;;;;;5019824;28;20141;-96
2023/11/19 07:32:48;;;;;;;60.43;41.63;;;11.30;93.70;;;;;;5016723;28;20200;-94
2023/11/19 07:35:15;;;;;;;57.80;41.87;;;11.30;93.50;;;;;;5126682;23;20240;-95
2023/11/19 07:37:42;;;;;;;56.63;42.73;;;11.40;93.40;;;;;;5021570;28;20177;-96
2023/11/19 07:40:08;;;;;;;56.60;42.20;;;11.40;93.20;;;;;;5021369;28;20161;-96
2023/11/19 07:42:34;;;;;;;64.83;41.23;;;11.30;93.20;;;;;;5021466;28;20158;-96
2023/11/19 07:45:03;;;;;;;57.90;36.20;;;11.30;93.20;;;;;;5022759;28;20192;-96
2023/11/19 08:15:52;;;;;;;62.70;44.43;;;11.30;92.40;;;;;;5101928;22;20223;-96
2023/11/19 09:04:17;;;;;;;61.47;42.27;;;11.60;91.80;;;;;;1235301;22;20484;-89
2023/11/19 11:19:10;;;;;;;74.37;55.17;;;12.10;91.00;;;;;;5013574;28;20673;-91
2023/11/19 11:21:38;;;;;;;75.13;58.87;;;12.00;90.60;;;;;;4979367;28;20192;-91
2023/11/19 11:24:26;;;;;;;59.43;39.50;;;11.90;90.50;;;;;;5007883;28;20201;-92
2023/11/19 11:27:09;;;;;;;58.03;42.27;;;11.80;90.70;;;;;;5083994;22;20218;-95
2023/11/19 11:57:08;;;;;;;54.80;42.40;;;11.50;93.50;;;;;;1445514;22;20469;-92
2023/11/19 11:59:42;;;;;;;66.07;38.50;;;11.60;93.30;;;;;;4998154;28;20248;-91
2023/11/19 12:02:10;;;;;;;65.70;39.73;;;11.70;92.80;;;;;;4999043;28;20757;-91
2023/11/19 12:04:36;;;;;;;53.33;37.33;;;11.70;92.50;;;;;;4998034;28;20642;-91
2023/11/19 12:07:12;;;;;;;73.83;40.27;;;11.70;92.50;;;;;;4998595;28;20233;-91
2023/11/19 12:09:41;;;;;;;67.03;39.17;;;11.70;92.20;;;;;;4998928;28;20228;-92
2023/11/19 12:12:21;;;;;;;71.17;37.50;;;11.70;92.00;;;;;;4999455;28;20185;-92
2023/11/19 12:14:59;;;;;;;54.50;41.03;;;11.70;91.60;;;;;;5000151;28;20245;-91
2023/11/19 12:17:33;;;;;;;59.60;41.60;;;11.70;91.60;;;;;;4998301;28;20198;-92
2023/11/19 12:20:05;;;;;;;50.70;38.57;;;11.80;91.10;;;;;;4997580;28;20177;-92
2023/11/19 12:22:31;;;;;;;52.97;39.00;;;11.80;91.00;;;;;;4997173;28;20192;-91
2023/11/19 12:24:57;;;;;;;58.83;38.07;;;11.80;90.70;;;;;;4998835;28;20182;-92
2023/11/19 12:27:22;;;;;;;67.13;51.70;;;11.80;90.90;;;;;;4998140;28;20678;-91
2023/11/19 12:29:49;;;;;;;67.17;59.47;;;11.80;91.00;;;;;;4998411;28;20185;-90
2023/11/19 12:32:14;;;;;;;73.30;59.23;;;11.80;91.00;;;;;;4997994;28;20182;-91
2023/11/19 12:34:40;;;;;;;70.53;59.53;;;11.70;90.70;;;;;;4999065;28;20273;-91
2023/11/19 12:37:06;;;;;;;67.93;53.07;;;11.70;90.90;;;;;;4998245;28;20198;-92
2023/11/19 12:39:32;;;;;;;65.10;58.13;;;11.70;91.00;;;;;;4999145;28;20618;-91
2023/11/19 12:42:00;;;;;;;68.57;61.37;;;11.70;91.00;;;;;;4999974;28;20206;-91
2023/11/19 12:44:26;;;;;;;68.97;59.70;;;11.70;91.20;;;;;;4998746;28;20180;-92
2023/11/19 12:47:06;;;;;;;69.73;58.60;;;11.70;91.40;;;;;;4998791;28;20300;-91
2023/11/19 12:49:34;;;;;;;80.33;63.73;;;11.70;91.40;;;;;;5000148;28;20213;-92
2023/11/19 12:52:01;;;;;;;71.47;63.93;;;11.70;91.60;;;;;;4999190;28;20185;-92
2023/11/19 12:54:36;;;;;;;76.80;63.87;;;11.60;91.60;;;;;;4999083;28;20185;-91
2023/11/19 12:57:02;;;;;;;76.07;67.93;;;11.60;91.60;;;;;;4998492;28;20236;-91
2023/11/19 12:59:28;;;;;;;62.67;43.77;;;11.70;91.60;;;;;;4998187;28;20190;-91
2023/11/19 13:01:58;;;;;;;60.93;41.03;;;11.60;91.70;;;;;;4999162;28;20196;-91
2023/11/19 13:04:27;;;;;;;63.87;49.83;;;11.70;91.70;;;;;;4998723;28;20265;-91
2023/11/19 13:06:53;;;;;;;71.93;62.40;;;11.70;91.30;;;;;;4998632;28;20202;-92
2023/11/19 13:09:26;;;;;;;70.07;62.60;;;11.70;91.40;;;;;;4996510;28;20662;-91
2023/11/19 13:11:53;;;;;;;70.30;44.03;;;11.70;91.30;;;;;;4996969;28;20182;-92
2023/11/19 13:14:18;;;;;;;63.20;40.63;;;11.70;91.40;;;;;;4996335;28;20173;-91
2023/11/19 13:16:47;;;;;;;67.53;60.93;;;11.60;91.30;;;;;;4996397;28;20198;-91
2023/11/19 13:19:14;;;;;;;73.07;59.57;;;11.60;91.30;;;;;;4996292;28;20265;-92
2023/11/19 13:21:39;;;;;;;80.50;66.13;;;11.60;91.10;;;;;;4998554;28;20190;-91
2023/11/19 13:24:06;;;;;;;70.30;40.70;;;11.60;91.10;;;;;;4998002;28;20178;-92
2023/11/19 13:26:32;;;;;;;59.70;40.37;;;11.60;91.00;;;;;;4996256;28;20280;-91
2023/11/19 13:28:57;;;;;;;55.90;41.07;;;11.60;91.00;;;;;;4996941;28;20201;-92
2023/11/19 13:31:23;;;;;;;67.87;61.17;;;11.60;90.80;;;;;;4997716;28;20174;-91
2023/11/19 13:33:48;;;;;;;71.90;64.03;;;11.70;90.70;;;;;;4997418;28;20184;-91
2023/11/19 13:36:14;;;;;;;74.33;66.07;;;11.70;90.80;;;;;;4996505;28;20198;-91
2023/11/19 13:38:44;;;;;;;56.83;39.53;;;11.70;90.80;;;;;;4996465;28;20186;-92
2023/11/19 13:41:11;;;;;;;62.90;38.83;;;11.70;90.90;;;;;;4997016;28;20213;-92
2023/11/19 13:43:37;;;;;;;73.03;58.67;;;11.70;90.50;;;;;;4995345;28;20212;-91
2023/11/19 13:46:03;;;;;;;69.47;59.57;;;11.70;90.40;;;;;;4996966;28;20179;-92
2023/11/19 13:48:29;;;;;;;74.40;63.73;;;11.70;90.40;;;;;;4996700;28;20292;-92
2023/11/19 13:50:55;;;;;;;67.57;39.83;;;11.70;90.50;;;;;;4995418;28;20635;-92
2023/11/19 13:53:21;;;;;;;75.80;40.50;;;11.70;90.60;;;;;;4995800;28;20249;-91
2023/11/19 13:55:47;;;;;;;80.10;61.63;;;11.60;90.90;;;;;;4995492;28;20181;-92
2023/11/19 13:58:13;;;;;;;72.93;63.43;;;11.50;91.30;;;;;;4994882;28;20214;-92
2023/11/19 14:00:40;;;;;;;78.27;69.67;;;11.40;91.60;;;;;;4994333;28;20182;-91
2023/11/19 14:03:06;;;;;;;59.70;42.03;;;11.40;91.90;;;;;;4994043;28;20232;-91
2023/11/19 14:05:31;;;;;;;60.13;45.47;;;11.40;92.20;;;;;;4993788;28;20265;-91
2023/11/19 14:07:57;;;;;;;73.90;65.00;;;11.30;92.70;;;;;;4994191;28;20353;-90
2023/11/19 14:10:23;;;;;;;66.07;60.03;;;11.20;92.90;;;;;;4993969;28;20174;-91
2023/11/19 14:12:49;;;;;;;57.37;52.87;;;10.90;92.00;;;;;;4994636;28;20696;-91
2023/11/19 14:15:19;;;;;;;38.10;34.50;;;10.50;90.90;;;;;;4994066;28;20595;-90
2023/11/19 14:17:45;;;;;;;32.47;30.00;;;10.30;90.70;;;;;;4993850;28;20212;-91
2023/11/19 14:20:15;;;;;;;39.57;36.33;;;10.20;90.70;;;;;;4994141;28;20257;-91
2023/11/19 14:22:41;;;;;;;37.30;34.40;;;10.20;90.70;;;;;;4994370;28;20200;-92
2023/11/19 14:25:09;;;;;;;34.30;31.70;;;10.10;90.50;;;;;;4995215;28;20546;-92
2023/11/19 14:27:39;;;;;;;34.17;31.50;;;10.20;90.60;;;;;;4994343;28;20792;-92
2023/11/19 14:35:10;;;;;;;45.03;41.10;;;10.20;91.90;;;;;;5013806;28;20213;-91
2023/11/19 14:37:36;;;;;;;38.90;35.53;;;10.20;92.30;;;;;;5018123;28;20244;-89
2023/11/19 14:40:07;;;;;;;37.90;34.57;;;10.20;92.50;;;;;;5001023;28;20181;-89
2023/11/19 14:42:32;;;;;;;37.00;33.33;;;10.20;92.70;;;;;;5007601;28;20173;-92
2023/11/19 14:44:58;;;;;;;40.70;37.17;;;10.20;92.80;;;;;;5021788;28;20162;-93
2023/11/19 14:47:24;;;;;;;35.90;32.57;;;10.10;92.80;;;;;;5020947;28;20200;-92
2023/11/19 14:49:50;;;;;;;61.03;56.33;;;10.10;92.80;;;;;;5021875;28;20153;-94
2023/11/19 14:52:16;;;;;;;60.73;55.87;;;10.10;92.90;;;;;;5022228;28;20149;-96
2023/11/19 14:54:42;;;;;;;58.33;54.00;;;10.00;92.90;;;;;;5021357;28;20161;-93
2023/11/19 14:57:10;;;;;;;59.93;55.23;;;9.90;92.90;;;;;;5019301;28;20209;-92
2023/11/19 14:59:36;;;;;;;61.10;56.23;;;9.90;93.00;;;;;;5020141;28;20169;-91
2023/11/19 15:02:03;;;;;;;59.83;55.07;;;9.90;93.10;;;;;;5008289;28;20177;-92
2023/11/19 15:04:29;;;;;;;56.23;52.07;;;9.80;93.20;;;;;;5020791;28;20249;-91
2023/11/19 15:06:57;;;;;;;63.03;57.90;;;9.80;93.40;;;;;;5021278;28;20181;-91
2023/11/19 15:09:23;;;;;;;65.87;60.77;;;9.90;93.60;;;;;;5021495;28;20197;-94
2023/11/19 15:11:49;;;;;;;39.93;36.20;;;9.80;93.80;;;;;;5021855;28;20173;-94
2023/11/19 15:14:16;;;;;;;41.33;37.70;;;9.80;93.90;;;;;;5021938;28;20188;-94
2023/11/19 15:16:42;;;;;;;40.63;36.77;;;9.90;94.10;;;;;;5021395;28;20227;-93
2023/11/19 15:19:08;;;;;;;50.90;42.77;;;9.90;94.20;;;;;;5019525;28;20172;-93
2023/11/19 15:21:34;;;;;;;45.57;40.73;;;10.00;94.30;;;;;;5018868;28;20253;-92
2023/11/19 15:24:00;;;;;;;58.87;41.13;;;10.10;94.40;;;;;;5019883;28;20618;-93
2023/11/19 15:26:26;;;;;;;45.90;41.70;;;10.10;94.40;;;;;;5016701;28;20208;-92
2023/11/19 15:28:56;;;;;;;46.80;41.60;;;10.10;94.40;;;;;;5016666;28;20232;-92
2023/11/19 15:31:22;;;;;;;48.10;41.63;;;10.10;94.40;;;;;;5013767;28;20170;-90
2023/11/19 15:33:47;;;;;;;55.60;45.33;;;10.00;94.40;;;;;;5009494;28;20193;-93
2023/11/19 15:36:14;;;;;;;48.03;43.17;;;10.10;94.50;;;;;;5013943;28;20173;-92
2023/11/19 15:38:40;;;;;;;72.00;64.20;;;10.10;94.60;;;;;;5020160;28;20170;-92
2023/11/19 15:41:07;;;;;;;70.60;63.57;;;10.20;94.60;;;;;;5016682;28;20185;-92
2023/11/19 15:43:33;;;;;;;73.43;66.10;;;10.30;94.60;;;;;;5015010;28;20197;-92
2023/11/19 15:45:58;;;;;;;72.23;64.87;;;10.30;94.60;;;;;;5007592;28;20170;-92
2023/11/19 15:48:25;;;;;;;70.33;62.77;;;10.40;94.60;;;;;;5014805;28;20212;-92
2023/11/19 15:50:51;;;;;;;79.23;66.33;;;10.40;94.70;;;;;;5014496;28;20168;-92
2023/11/19 15:53:18;;;;;;;71.13;64.83;;;10.40;94.60;;;;;;5019631;28;20169;-92
2023/11/19 15:55:44;;;;;;;74.13;66.63;;;10.40;94.70;;;;;;5020409;28;20170;-92
2023/11/19 15:58:09;;;;;;;75.07;67.37;;;10.50;94.70;;;;;;5017338;28;20198;-92
2023/11/19 16:00:35;;;;;;;64.20;55.20;;;10.50;94.70;;;;;;5021371;28;20613;-94
2023/11/19 16:03:00;;;;;;;62.53;54.13;;;10.50;94.70;;;;;;5021369;28;20249;-95
2023/11/19 16:05:26;;;;;;;66.93;52.97;;;10.50;94.70;;;;;;5022207;28;20161;-95
2023/11/19 16:07:52;;;;;;;54.03;43.27;;;10.50;94.80;;;;;;5024970;28;20276;-95
2023/11/19 16:10:19;;;;;;;58.00;44.07;;;10.50;94.80;;;;;;5025202;28;20180;-94
2023/11/19 16:12:48;;;;;;;60.07;41.60;;;10.40;94.90;;;;;;5025009;28;20200;-92
2023/11/19 16:15:14;;;;;;;62.37;45.00;;;10.50;94.90;;;;;;5025000;28;20161;-94
2023/11/19 16:17:41;;;;;;;61.70;46.23;;;10.40;94.90;;;;;;5024855;28;20188;-93
2023/11/19 16:20:16;;;;;;;64.33;50.87;;;10.40;95.00;;;;;;5024780;28;20180;-93
2023/11/19 16:22:42;;;;;;;61.07;50.50;;;10.40;95.00;;;;;;5024023;28;20188;-93
2023/11/19 16:25:19;;;;;;;61.83;50.90;;;10.40;95.10;;;;;;5024402;28;20228;-93
2023/11/19 16:27:44;;;;;;;58.87;50.40;;;10.30;95.10;;;;;;5016357;28;20209;-92
2023/11/19 16:30:11;;;;;;;62.30;54.20;;;10.40;95.20;;;;;;5021009;28;20196;-95
2023/11/19 16:32:53;;;;;;;63.33;56.63;;;10.30;95.10;;;;;;5023978;28;20185;-93
2023/11/19 16:35:19;;;;;;;62.83;56.37;;;10.30;94.90;;;;;;5023655;28;20209;-93
2023/11/19 16:37:45;;;;;;;50.03;44.97;;;10.30;94.80;;;;;;5020447;28;20201;-94
2023/11/19 16:40:11;;;;;;;49.27;44.10;;;10.30;94.70;;;;;;5022134;28;20165;-92
2023/11/19 16:42:38;;;;;;;58.43;51.93;;;10.20;94.50;;;;;;5011448;28;20221;-92
2023/11/19 16:45:09;;;;;;;57.03;51.30;;;10.20;94.30;;;;;;5023293;28;20184;-93
2023/11/19 16:47:35;;;;;;;47.17;41.93;;;10.20;94.10;;;;;;5023701;28;20209;-94
2023/11/19 16:50:00;;;;;;;49.00;42.10;;;10.10;94.10;;;;;;5023779;28;20165;-93
2023/11/19 16:52:26;;;;;;;46.10;41.60;;;10.10;94.00;;;;;;5024160;28;20215;-94
2023/11/19 16:54:55;;;;;;;55.53;50.83;;;10.10;93.90;;;;;;5024030;28;20198;-94
2023/11/19 16:57:24;;;;;;;51.03;46.40;;;10.10;93.90;;;;;;5024199;28;20323;-94
2023/11/19 16:59:55;;;;;;;42.37;38.30;;;9.90;93.80;;;;;;5024002;28;20160;-93
2023/11/19 17:02:20;;;;;;;45.30;41.13;;;9.90;93.90;;;;;;5024095;28;20162;-94
2023/11/19 17:04:46;;;;;;;48.43;43.63;;;9.90;93.90;;;;;;5024195;28;20216;-94
2023/11/19 17:07:12;;;;;;;52.83;48.43;;;9.90;94.00;;;;;;5023749;28;20246;-94
2023/11/19 17:09:38;;;;;;;57.00;52.13;;;9.80;94.10;;;;;;5024103;28;20233;-92
2023/11/19 17:12:05;;;;;;;45.77;41.80;;;9.80;94.10;;;;;;5020030;28;20253;-92
2023/11/19 17:14:30;;;;;;;46.90;43.23;;;9.70;94.10;;;;;;5021923;28;20204;-93
2023/11/19 17:16:56;;;;;;;46.23;42.03;;;9.60;94.20;;;;;;5021098;28;20193;-93
2023/11/19 17:19:21;;;;;;;48.53;44.27;;;9.60;94.30;;;;;;5022978;28;20153;-93
2023/11/19 17:21:47;;;;;;;42.73;39.33;;;9.50;94.30;;;;;;5019436;28;20182;-92
2023/11/19 17:24:13;;;;;;;44.53;40.57;;;9.50;94.30;;;;;;5020357;28;20253;-92
2023/11/19 17:26:38;;;;;;;46.07;42.50;;;9.40;94.40;;;;;;5021772;28;20193;-91
2023/11/19 17:29:04;;;;;;;46.50;42.70;;;9.50;94.40;;;;;;5021903;28;20215;-93
2023/11/19 17:31:36;;;;;;;49.23;44.97;;;9.50;94.40;;;;;;5020902;28;20172;-91
2023/11/19 17:34:01;;;;;;;45.87;41.93;;;9.50;94.30;;;;;;5018497;28;20220;-92
2023/11/19 17:36:27;;;;;;;46.90;42.87;;;9.50;94.20;;;;;;5022145;28;20265;-92
2023/11/19 17:38:53;;;;;;;49.10;44.87;;;9.50;94.20;;;;;;5022905;28;20169;-93
2023/11/19 17:41:18;;;;;;;46.07;41.80;;;9.60;94.20;;;;;;5020147;28;20172;-90
2023/11/19 17:43:44;;;;;;;46.60;42.37;;;9.60;94.20;;;;;;5021099;28;20164;-93
2023/11/19 17:46:10;;;;;;;48.67;44.17;;;9.60;94.20;;;;;;5021297;28;20185;-92
2023/11/19 17:48:35;;;;;;;49.37;45.27;;;9.70;94.30;;;;;;5020808;28;20224;-94
2023/11/19 17:51:01;;;;;;;53.30;48.50;;;9.70;94.30;;;;;;5022035;28;20173;-91
2023/11/19 17:53:28;;;;;;;51.03;47.07;;;9.70;94.30;;;;;;5021018;28;20185;-92
2023/11/19 17:55:54;;;;;;;49.73;45.33;;;9.60;94.40;;;;;;5022353;28;20169;-93
2023/11/19 17:58:21;;;;;;;53.83;48.90;;;9.60;94.60;;;;;;5017839;28;20161;-93
2023/11/19 18:00:47;;;;;;;55.67;50.60;;;9.60;94.60;;;;;;5018137;28;20165;-92
2023/11/19 18:03:12;;;;;;;55.63;50.83;;;9.60;94.70;;;;;;5018293;28;20199;-93
2023/11/19 18:05:41;;;;;;;58.70;53.83;;;9.60;94.70;;;;;;5022685;28;20256;-95
2023/11/19 18:08:11;;;;;;;68.53;63.50;;;9.70;94.80;;;;;;5100303;22;20216;-92
2023/11/19 18:10:36;;;;;;;74.47;68.27;;;9.70;95.00;;;;;;5042495;28;20161;-94
2023/11/19 18:13:02;;;;;;;67.90;62.37;;;9.80;95.10;;;;;;5042163;28;20168;-94
2023/11/19 18:15:28;;;;;;;70.60;65.17;;;9.80;95.20;;;;;;5042347;28;20236;-94
2023/11/19 18:17:54;;;;;;;70.07;64.83;;;9.80;95.20;;;;;;5042377;28;20200;-95